Time;durP1;ratioP1;P1;durP2;ratioP2;P2;SDS_P1;SDS_P2;PMS_P1;PMS_P2;Temp;Humidity;BMP_temperature;BMP_pressure;BME280_temperature;BME280_humidity;BME280_pressure;Samples;Min_cycle;Max_cycle;Signal;HPM_P1;HPM_P2
2022/08/04 00:01:49;;;;;;;0.35;0.20;;;20.40;99.90;;;;;;4801596;29;20046;-79
2022/08/04 00:04:32;;;;;;;0.40;0.22;;;20.40;99.90;;;;;;4816230;29;20139;-78
2022/08/04 00:07:27;;;;;;;0.70;0.40;;;20.30;99.90;;;;;;4817880;29;20517;-78
2022/08/04 00:10:05;;;;;;;0.68;0.40;;;20.30;99.90;;;;;;4789200;29;20054;-78
2022/08/04 00:12:33;;;;;;;0.57;0.40;;;20.40;99.90;;;;;;4816491;29;20058;-78
2022/08/04 00:15:01;;;;;;;0.47;0.40;;;20.30;99.90;;;;;;4814352;29;20383;-78
2022/08/04 00:17:35;;;;;;;0.77;0.45;;;20.30;99.90;;;;;;4816903;29;20575;-79
2022/08/04 00:20:03;;;;;;;0.65;0.30;;;20.30;99.90;;;;;;4816721;29;20082;-79
2022/08/04 00:22:31;;;;;;;0.30;0.30;;;20.30;99.90;;;;;;4818082;29;20186;-79
2022/08/04 00:25:00;;;;;;;0.30;0.22;;;20.20;99.90;;;;;;4815887;29;20597;-79
2022/08/04 00:27:28;;;;;;;0.70;0.40;;;20.30;99.90;;;;;;4817135;29;20054;-79
2022/08/04 00:29:55;;;;;;;0.30;0.30;;;20.40;99.90;;;;;;4816716;29;20100;-79
2022/08/04 00:32:21;;;;;;;0.75;0.30;;;20.30;99.90;;;;;;4816302;29;20066;-78
2022/08/04 00:34:47;;;;;;;1.02;0.30;;;20.30;99.90;;;;;;4815033;29;20134;-78
2022/08/04 00:37:14;;;;;;;0.85;0.47;;;20.30;99.90;;;;;;4815189;29;20062;-79
2022/08/04 00:39:41;;;;;;;0.30;0.20;;;20.20;99.90;;;;;;4817514;29;20054;-79
2022/08/04 00:42:46;;;;;;;0.52;0.30;;;20.30;99.90;;;;;;4816477;29;20402;-79
2022/08/04 00:45:49;;;;;;;0.50;0.22;;;20.40;99.90;;;;;;4801786;29;20066;-78
2022/08/04 00:48:54;;;;;;;0.50;0.40;;;20.30;99.90;;;;;;4817412;29;20065;-79
2022/08/04 00:52:11;;;;;;;0.55;0.38;;;20.20;99.90;;;;;;4818987;29;20057;-79
2022/08/04 00:54:48;;;;;;;0.43;0.30;;;20.30;99.90;;;;;;4765845;29;20593;-79
2022/08/04 00:57:42;;;;;;;0.47;0.40;;;20.20;99.90;;;;;;4820339;29;20068;-79
2022/08/04 01:00:13;;;;;;;0.50;0.30;;;20.20;99.90;;;;;;4793195;29;20046;-79
2022/08/04 01:03:03;;;;;;;0.43;0.30;;;20.30;99.90;;;;;;4803068;29;20042;-78
2022/08/04 01:05:41;;;;;;;0.30;0.30;;;20.20;99.90;;;;;;4817689;29;20507;-78
2022/08/04 01:08:34;;;;;;;0.30;0.30;;;20.20;99.90;;;;;;4818913;29;20632;-73
2022/08/04 01:11:12;;;;;;;1.20;0.47;;;20.20;99.90;;;;;;4823080;29;20066;-73
2022/08/04 01:13:47;;;;;;;0.32;0.30;;;20.10;99.90;;;;;;4818749;29;20058;-73
2022/08/04 01:16:15;;;;;;;0.65;0.40;;;20.10;99.90;;;;;;4819016;29;20375;-73
2022/08/04 01:19:00;;;;;;;0.70;0.30;;;20.10;99.90;;;;;;4819213;29;20137;-73
2022/08/04 01:21:28;;;;;;;0.38;0.20;;;20.10;99.90;;;;;;4818748;29;20050;-73
2022/08/04 01:24:25;;;;;;;0.50;0.50;;;20.10;99.90;;;;;;4816945;29;20058;-73
2022/08/04 01:27:48;;;;;;;0.30;0.30;;;20.10;99.90;;;;;;4820104;29;20067;-73
2022/08/04 01:30:14;;;;;;;0.40;0.40;;;20.00;99.90;;;;;;4742632;30;20408;-73
2022/08/04 01:32:52;;;;;;;0.50;0.40;;;20.00;99.90;;;;;;4741337;30;20135;-73
2022/08/04 01:35:28;;;;;;;0.93;0.38;;;20.00;99.90;;;;;;4794168;29;20079;-73
2022/08/04 01:38:06;;;;;;;;;;;20.00;99.90;;;;;;4820377;29;20118;-73
2022/08/04 01:40:33;;;;;;;0.40;0.30;;;20.00;99.90;;;;;;4818487;29;20023;-73
2022/08/04 01:43:02;;;;;;;0.30;0.30;;;19.90;99.90;;;;;;4817773;29;20392;-73
2022/08/04 01:45:29;;;;;;;0.77;0.40;;;19.90;99.90;;;;;;4819215;29;20061;-73
2022/08/04 01:47:56;;;;;;;0.80;0.45;;;19.90;99.90;;;;;;4818641;29;20077;-73
2022/08/04 01:50:23;;;;;;;0.90;0.50;;;19.80;99.90;;;;;;4818157;29;20519;-73
2022/08/04 01:52:53;;;;;;;0.70;0.47;;;19.80;99.90;;;;;;4804529;29;20055;-73
2022/08/04 01:55:19;;;;;;;0.65;0.38;;;19.80;99.90;;;;;;4816879;29;20050;-73
2022/08/04 01:57:51;;;;;;;0.40;0.40;;;19.80;99.90;;;;;;4813246;29;20414;-73
2022/08/04 02:00:27;;;;;;;0.60;0.40;;;19.90;99.90;;;;;;4831294;29;20511;-73
2022/08/04 02:02:54;;;;;;;1.45;0.30;;;19.80;99.90;;;;;;4818292;29;20498;-73
2022/08/04 02:05:23;;;;;;;0.60;0.40;;;19.90;99.90;;;;;;4817911;29;20133;-73
2022/08/04 02:08:06;;;;;;;1.60;0.60;;;19.80;99.90;;;;;;4817227;29;20062;-73
2022/08/04 02:10:52;;;;;;;1.15;0.50;;;19.90;99.90;;;;;;4818114;29;20058;-73
2022/08/04 02:13:30;;;;;;;0.60;0.40;;;19.80;99.90;;;;;;4817059;29;20141;-73
2022/08/04 02:16:12;;;;;;;1.23;0.50;;;19.80;99.90;;;;;;4817942;29;20097;-73
2022/08/04 02:19:09;;;;;;;0.77;0.40;;;19.90;99.90;;;;;;4818517;29;20898;-73
2022/08/04 02:21:36;;;;;;;1.15;0.32;;;19.90;99.90;;;;;;4818554;29;20078;-73
2022/08/04 02:24:07;;;;;;;1.27;0.40;;;19.80;99.90;;;;;;4816277;29;20062;-73
2022/08/04 02:26:35;;;;;;;0.52;0.30;;;19.90;99.90;;;;;;4818614;29;20062;-73
2022/08/04 02:29:19;;;;;;;1.05;0.50;;;19.90;99.90;;;;;;4817778;29;20050;-73
2022/08/04 02:31:56;;;;;;;0.40;0.30;;;19.90;99.90;;;;;;4817528;29;20503;-73
2022/08/04 02:34:31;;;;;;;0.30;0.30;;;19.90;99.90;;;;;;4815868;29;20503;-73
2022/08/04 02:36:58;;;;;;;0.85;0.50;;;19.80;99.90;;;;;;4820467;29;20124;-73
2022/08/04 02:39:30;;;;;;;0.93;0.50;;;19.80;99.90;;;;;;4817654;29;20348;-73
2022/08/04 02:41:58;;;;;;;0.50;0.30;;;19.80;99.90;;;;;;4832724;29;20062;-73
2022/08/04 02:44:26;;;;;;;0.50;0.40;;;19.80;99.90;;;;;;4816080;29;20065;-73
2022/08/04 02:46:53;;;;;;;1.45;0.50;;;19.80;99.90;;;;;;4819633;29;20090;-73
2022/08/04 02:49:21;;;;;;;0.43;0.43;;;19.70;99.90;;;;;;4817828;29;20050;-73
2022/08/04 02:51:55;;;;;;;1.88;0.70;;;19.60;99.90;;;;;;4818930;29;20088;-73
2022/08/04 02:54:33;;;;;;;0.80;0.50;;;19.70;99.90;;;;;;4816899;29;20050;-73
2022/08/04 02:57:00;;;;;;;0.68;0.50;;;19.60;99.90;;;;;;4819298;29;20069;-73
2022/08/04 02:59:28;;;;;;;0.43;0.40;;;19.60;99.90;;;;;;4816629;29;20492;-73
2022/08/04 03:01:57;;;;;;;0.55;0.43;;;19.60;99.90;;;;;;4817432;29;20050;-73
2022/08/04 03:04:42;;;;;;;0.50;0.45;;;19.70;99.90;;;;;;4820804;29;20403;-73
2022/08/04 03:07:30;;;;;;;1.58;0.50;;;19.60;99.90;;;;;;4819581;29;20060;-73
2022/08/04 03:10:27;;;;;;;0.93;0.52;;;19.60;99.90;;;;;;4818025;29;20514;-73
2022/08/04 03:13:07;;;;;;;0.40;0.40;;;19.50;99.90;;;;;;4800043;29;20498;-73
2022/08/04 03:16:02;;;;;;;0.40;0.40;;;19.50;99.90;;;;;;4817290;29;20058;-73
2022/08/04 03:18:49;;;;;;;1.08;0.52;;;19.40;99.90;;;;;;4817432;29;20043;-73
2022/08/04 03:21:59;;;;;;;0.60;0.35;;;19.40;99.90;;;;;;4815742;29;20114;-73
2022/08/04 03:24:45;;;;;;;0.43;0.40;;;19.40;99.90;;;;;;4816735;29;20061;-73
2022/08/04 03:27:20;;;;;;;0.70;0.60;;;19.30;99.90;;;;;;4784516;29;20361;-73
2022/08/04 03:30:12;;;;;;;0.47;0.47;;;19.30;99.90;;;;;;4802270;29;20528;-73
2022/08/04 03:33:18;;;;;;;1.20;0.60;;;19.40;99.90;;;;;;4814884;29;20122;-73
2022/08/04 03:36:17;;;;;;;0.50;0.50;;;19.20;99.90;;;;;;4816560;29;20101;-73
2022/08/04 03:38:54;;;;;;;0.50;0.47;;;19.10;99.90;;;;;;4819024;29;20137;-73
2022/08/04 03:41:23;;;;;;;0.55;0.32;;;19.30;99.90;;;;;;4818604;29;20449;-73
2022/08/04 03:44:13;;;;;;;0.70;0.45;;;19.00;99.90;;;;;;4816516;29;20459;-73
2022/08/04 03:47:16;;;;;;;0.68;0.47;;;19.00;99.90;;;;;;4817588;29;20096;-73
2022/08/04 03:49:45;;;;;;;0.20;0.20;;;19.10;99.90;;;;;;4816479;29;20407;-73
2022/08/04 03:55:28;;;;;;;0.20;0.20;;;18.90;99.90;;;;;;4817196;29;20065;-73
2022/08/04 03:58:03;;;;;;;0.30;0.30;;;18.90;99.90;;;;;;4814709;29;20061;-73
2022/08/04 04:01:04;;;;;;;0.50;0.40;;;19.00;99.90;;;;;;4812146;29;20046;-73
2022/08/04 04:03:54;;;;;;;0.47;0.40;;;18.90;99.90;;;;;;4812066;29;20069;-73
2022/08/04 04:06:36;;;;;;;0.73;0.40;;;18.80;99.90;;;;;;4816542;29;20093;-73
2022/08/04 04:09:20;;;;;;;0.25;0.25;;;18.90;99.90;;;;;;4816929;29;20110;-73
2022/08/04 04:12:10;;;;;;;0.40;0.40;;;18.90;99.90;;;;;;4817343;29;20054;-73
2022/08/04 04:14:39;;;;;;;0.47;0.40;;;18.90;99.90;;;;;;4816047;29;20137;-73
2022/08/04 04:17:28;;;;;;;0.45;0.40;;;18.90;99.90;;;;;;4816416;29;20089;-73
2022/08/04 04:20:20;;;;;;;0.63;0.50;;;18.90;99.90;;;;;;4817301;29;20046;-73
2022/08/04 04:23:16;;;;;;;0.47;0.40;;;19.00;99.90;;;;;;4816126;29;20050;-73
2022/08/04 04:26:02;;;;;;;0.70;0.40;;;18.90;99.90;;;;;;4817780;29;20046;-73
2022/08/04 04:28:34;;;;;;;0.35;0.32;;;19.00;99.90;;;;;;4800405;29;20129;-73
2022/08/04 04:31:28;;;;;;;0.70;0.55;;;19.10;99.90;;;;;;4816166;29;20046;-73
2022/08/04 04:34:05;;;;;;;0.90;0.60;;;19.00;99.90;;;;;;4815415;29;20396;-73
2022/08/04 04:36:43;;;;;;;2.28;0.85;;;19.20;99.90;;;;;;4818438;29;20049;-73
2022/08/04 04:39:29;;;;;;;1.25;0.55;;;19.20;99.90;;;;;;4800642;29;20054;-73
2022/08/04 04:42:33;;;;;;;0.60;0.60;;;19.30;99.90;;;;;;4815225;29;20051;-73
2022/08/04 04:45:28;;;;;;;0.45;0.45;;;19.30;99.90;;;;;;4816673;29;20050;-73
2022/08/04 04:47:55;;;;;;;0.90;0.60;;;19.50;99.90;;;;;;4801648;29;20050;-73
2022/08/04 04:51:06;;;;;;;0.52;0.43;;;19.50;99.90;;;;;;4816229;29;20613;-73
2022/08/04 04:53:54;;;;;;;1.05;0.40;;;19.60;99.90;;;;;;4813925;29;20066;-72
2022/08/04 04:56:26;;;;;;;0.77;0.47;;;19.60;99.90;;;;;;4818001;29;20054;-73
2022/08/04 04:58:53;;;;;;;0.65;0.43;;;19.60;99.90;;;;;;4801406;29;20058;-72
2022/08/04 05:01:42;;;;;;;1.05;0.60;;;19.70;99.90;;;;;;4819554;29;20054;-73
2022/08/04 05:04:44;;;;;;;0.90;0.65;;;19.60;99.90;;;;;;4812709;29;20085;-72
2022/08/04 05:07:39;;;;;;;0.45;0.40;;;19.80;99.90;;;;;;4798841;29;20054;-72
2022/08/04 05:10:19;;;;;;;0.75;0.35;;;19.90;99.90;;;;;;4805502;29;20058;-72
2022/08/04 05:13:14;;;;;;;0.55;0.40;;;19.90;99.90;;;;;;4809788;29;20165;-72
2022/08/04 05:15:44;;;;;;;0.75;0.40;;;20.00;99.90;;;;;;4807727;29;20929;-73
2022/08/04 05:18:18;;;;;;;0.35;0.30;;;20.00;99.90;;;;;;4796140;29;20479;-73
2022/08/04 05:20:50;;;;;;;0.40;0.40;;;20.00;99.90;;;;;;4814253;29;20038;-73
2022/08/04 05:23:19;;;;;;;0.22;0.22;;;20.00;99.90;;;;;;4811816;29;20092;-73
2022/08/04 05:26:11;;;;;;;0.40;0.30;;;20.10;99.90;;;;;;4812570;29;20126;-73
2022/08/04 05:28:40;;;;;;;0.22;0.22;;;20.40;99.90;;;;;;4811846;29;20058;-73
2022/08/04 05:31:09;;;;;;;0.38;0.30;;;20.50;99.90;;;;;;4816448;29;20129;-72
2022/08/04 05:33:53;;;;;;;0.88;0.47;;;20.60;99.90;;;;;;4817664;29;20331;-72
2022/08/04 05:36:23;;;;;;;0.40;0.35;;;20.50;99.90;;;;;;4817217;29;20376;-73
2022/08/04 05:38:52;;;;;;;0.43;0.35;;;20.60;99.90;;;;;;4816798;29;20069;-73
2022/08/04 05:41:18;;;;;;;0.57;0.40;;;20.70;99.90;;;;;;4817358;29;20058;-73
2022/08/04 05:43:45;;;;;;;0.50;0.30;;;20.60;99.90;;;;;;4816957;29;20065;-72
2022/08/04 05:46:12;;;;;;;0.30;0.30;;;20.80;99.90;;;;;;4819687;29;20379;-73
2022/08/04 05:48:39;;;;;;;0.30;0.30;;;20.90;99.90;;;;;;4821291;29;20057;-73
2022/08/04 05:51:09;;;;;;;0.40;0.40;;;20.90;99.90;;;;;;4822143;29;20089;-72
2022/08/04 05:53:36;;;;;;;1.00;0.60;;;20.90;99.90;;;;;;4815113;29;20388;-73
2022/08/04 05:56:03;;;;;;;0.85;0.50;;;21.10;99.90;;;;;;4805293;29;20058;-72
2022/08/04 05:58:30;;;;;;;0.82;0.50;;;21.10;99.90;;;;;;4821467;29;20129;-73
2022/08/04 06:01:00;;;;;;;0.22;0.22;;;21.10;99.90;;;;;;4821173;29;20081;-72
2022/08/04 06:03:30;;;;;;;0.20;0.20;;;21.20;99.90;;;;;;4820022;29;20051;-72
2022/08/04 06:05:57;;;;;;;0.30;0.30;;;21.20;99.90;;;;;;4823029;29;20055;-72
2022/08/04 06:08:24;;;;;;;0.60;0.50;;;21.40;99.90;;;;;;4820586;29;20173;-72
2022/08/04 06:10:52;;;;;;;0.68;0.40;;;21.50;99.90;;;;;;4821084;29;20525;-71
2022/08/04 06:13:24;;;;;;;0.50;0.40;;;21.70;99.90;;;;;;4822786;29;20436;-72
2022/08/04 06:15:53;;;;;;;0.30;0.30;;;21.70;99.90;;;;;;4823378;29;20064;-72
2022/08/04 06:18:20;;;;;;;0.70;0.22;;;21.90;99.90;;;;;;4822381;29;20079;-72
2022/08/04 06:20:50;;;;;;;0.50;0.20;;;22.10;99.90;;;;;;4820785;29;20065;-72
2022/08/04 06:23:19;;;;;;;0.32;0.32;;;22.30;99.90;;;;;;4822349;29;20060;-72
2022/08/04 06:25:53;;;;;;;0.28;0.28;;;22.40;99.90;;;;;;4823678;29;20115;-72
2022/08/04 06:28:20;;;;;;;0.52;0.30;;;22.60;99.90;;;;;;4821396;29;20081;-72
2022/08/04 06:30:49;;;;;;;0.52;0.50;;;22.70;99.90;;;;;;4822475;29;20394;-72
2022/08/04 06:33:26;;;;;;;0.50;0.40;;;22.90;99.90;;;;;;4821914;29;20142;-72
2022/08/04 06:35:54;;;;;;;0.57;0.57;;;23.00;99.90;;;;;;4807401;29;20094;-72
2022/08/04 06:38:28;;;;;;;1.13;0.52;;;23.10;99.90;;;;;;4822153;29;20440;-72
2022/08/04 06:40:56;;;;;;;0.35;0.30;;;23.10;99.90;;;;;;4821935;29;20388;-72
2022/08/04 06:43:23;;;;;;;0.30;0.30;;;23.30;99.90;;;;;;4823344;29;20129;-72
2022/08/04 06:45:50;;;;;;;0.50;0.50;;;23.40;99.90;;;;;;4822075;29;20100;-72
2022/08/04 06:48:17;;;;;;;0.40;0.40;;;23.60;99.90;;;;;;4821155;29;20055;-72
2022/08/04 06:50:47;;;;;;;0.75;0.63;;;23.60;99.90;;;;;;4822126;29;20043;-75
2022/08/04 06:53:13;;;;;;;0.57;0.50;;;23.70;99.90;;;;;;4823285;29;20073;-72
2022/08/04 06:55:42;;;;;;;1.05;0.60;;;23.70;99.90;;;;;;4806643;29;20066;-72
2022/08/04 06:58:09;;;;;;;0.95;0.60;;;23.70;99.90;;;;;;4821750;29;20062;-72
2022/08/04 07:00:35;;;;;;;0.90;0.68;;;23.80;99.90;;;;;;4823161;29;20476;-72
2022/08/04 07:03:02;;;;;;;0.98;0.70;;;23.80;99.90;;;;;;4821752;29;20073;-72
2022/08/04 07:05:29;;;;;;;0.82;0.50;;;23.80;99.90;;;;;;4823004;29;20058;-72
2022/08/04 07:07:56;;;;;;;0.95;0.50;;;23.80;99.90;;;;;;4821553;29;20062;-72
2022/08/04 07:10:23;;;;;;;1.00;0.80;;;23.90;99.90;;;;;;4821669;29;20054;-72
2022/08/04 07:12:50;;;;;;;1.48;0.63;;;24.20;99.90;;;;;;4821543;29;20054;-72
2022/08/04 07:15:17;;;;;;;0.75;0.63;;;24.30;99.90;;;;;;4821475;29;20107;-72
2022/08/04 07:17:44;;;;;;;2.28;0.60;;;24.60;99.90;;;;;;4821757;29;20054;-72
2022/08/04 07:20:10;;;;;;;1.85;1.10;;;24.70;99.90;;;;;;4821428;29;20042;-72
2022/08/04 07:22:36;;;;;;;1.52;0.70;;;24.90;99.90;;;;;;4803134;29;20058;-72
2022/08/04 07:25:07;;;;;;;0.95;0.75;;;25.30;99.90;;;;;;4820760;29;20523;-72
2022/08/04 07:27:33;;;;;;;0.70;0.50;;;25.40;99.90;;;;;;4821329;29;20058;-72
2022/08/04 07:29:59;;;;;;;0.52;0.40;;;25.50;99.90;;;;;;4806145;29;20557;-72
2022/08/04 07:32:26;;;;;;;0.82;0.70;;;25.70;99.90;;;;;;4821225;29;20080;-72
2022/08/04 07:34:52;;;;;;;0.60;0.50;;;25.80;99.90;;;;;;4805996;29;20062;-72
2022/08/04 07:37:18;;;;;;;0.82;0.55;;;25.90;99.90;;;;;;4821336;29;20114;-72
2022/08/04 07:39:44;;;;;;;0.55;0.55;;;25.80;99.90;;;;;;4820967;29;20490;-72
2022/08/04 07:42:11;;;;;;;0.60;0.60;;;25.70;99.90;;;;;;4821522;29;20395;-72
2022/08/04 07:44:37;;;;;;;1.15;0.60;;;25.80;99.90;;;;;;4821226;29;20513;-72
2022/08/04 07:47:06;;;;;;;1.63;0.90;;;25.80;99.90;;;;;;4822214;29;20062;-72
2022/08/04 07:49:32;;;;;;;1.33;0.80;;;25.90;99.90;;;;;;4821281;29;20135;-72
2022/08/04 07:51:58;;;;;;;1.23;0.75;;;26.10;99.90;;;;;;4806028;29;20077;-72
2022/08/04 07:54:24;;;;;;;1.73;0.80;;;26.20;99.90;;;;;;4820849;29;20058;-72
2022/08/04 07:56:50;;;;;;;1.42;0.90;;;26.30;99.90;;;;;;4820923;29;20082;-72
2022/08/04 07:59:17;;;;;;;1.67;1.08;;;26.50;99.90;;;;;;4820560;29;20054;-72
2022/08/04 08:01:44;;;;;;;3.22;1.00;;;26.60;99.90;;;;;;4822311;29;20076;-72
2022/08/04 08:04:11;;;;;;;2.10;1.05;;;26.60;99.90;;;;;;4820866;29;20087;-72
2022/08/04 08:06:39;;;;;;;2.85;1.20;;;26.50;99.90;;;;;;4820997;29;20050;-72
2022/08/04 08:09:12;;;;;;;3.25;1.70;;;26.50;99.90;;;;;;4820685;29;20094;-72
2022/08/04 08:11:38;;;;;;;1.23;0.90;;;26.50;99.90;;;;;;4809231;29;20138;-72
2022/08/04 08:14:07;;;;;;;2.75;1.30;;;26.50;99.90;;;;;;4820528;29;20066;-72
2022/08/04 08:16:34;;;;;;;2.83;1.80;;;26.20;99.90;;;;;;4820781;29;20460;-72
2022/08/04 08:19:00;;;;;;;1.90;1.50;;;26.10;99.90;;;;;;4820726;29;20111;-72
2022/08/04 08:21:26;;;;;;;2.47;1.60;;;26.20;99.90;;;;;;4822044;29;20062;-72
2022/08/04 08:23:52;;;;;;;3.58;1.88;;;26.10;99.90;;;;;;4822105;29;20411;-72
2022/08/04 08:26:18;;;;;;;3.55;1.75;;;25.80;99.90;;;;;;4820791;29;20089;-72
2022/08/04 08:28:44;;;;;;;2.40;1.50;;;25.70;99.90;;;;;;4820951;29;20592;-72
2022/08/04 08:31:09;;;;;;;2.28;1.27;;;25.70;99.90;;;;;;4805564;29;20066;-72
2022/08/04 08:33:36;;;;;;;1.25;1.10;;;25.70;99.90;;;;;;4820577;29;20077;-72
2022/08/04 08:36:38;;;;;;;2.20;1.00;;;25.90;99.90;;;;;;4820642;29;20062;-72
2022/08/04 08:39:32;;;;;;;1.58;1.15;;;26.20;99.90;;;;;;4810038;29;20053;-72
2022/08/04 08:42:30;;;;;;;3.20;1.20;;;26.50;99.90;;;;;;4820803;29;20050;-72
2022/08/04 08:45:45;;;;;;;1.80;1.00;;;26.70;99.90;;;;;;4821747;29;20062;-72
2022/08/04 08:48:19;;;;;;;1.77;1.35;;;26.60;99.90;;;;;;4744513;30;20056;-72
2022/08/04 08:51:16;;;;;;;2.60;1.13;;;26.70;99.90;;;;;;4803842;29;20064;-72
2022/08/04 08:53:53;;;;;;;3.70;1.30;;;26.80;99.90;;;;;;4804924;29;20050;-72
2022/08/04 08:56:19;;;;;;;1.27;1.08;;;26.60;99.90;;;;;;4820285;29;20136;-72
2022/08/04 08:59:03;;;;;;;1.50;1.23;;;26.60;99.90;;;;;;4805334;29;20186;-72
2022/08/04 09:01:50;;;;;;;2.55;1.23;;;26.50;99.90;;;;;;4820516;29;20055;-72
2022/08/04 09:04:38;;;;;;;2.22;1.58;;;26.60;99.90;;;;;;4820595;29;20107;-72
2022/08/04 09:07:37;;;;;;;2.20;1.45;;;26.30;99.90;;;;;;4821843;29;20069;-72
2022/08/04 09:10:22;;;;;;;2.42;1.60;;;26.20;99.90;;;;;;4794778;29;20061;-72
2022/08/04 09:13:18;;;;;;;3.15;1.38;;;26.00;99.90;;;;;;4808576;29;20058;-72
2022/08/04 09:16:04;;;;;;;2.40;1.60;;;26.00;99.90;;;;;;4823634;29;20502;-72
2022/08/04 09:18:46;;;;;;;2.40;1.17;;;26.00;99.90;;;;;;4784454;29;20064;-72
2022/08/04 09:21:29;;;;;;;3.85;1.30;;;26.20;99.90;;;;;;4823582;29;20086;-72
2022/08/04 09:24:17;;;;;;;2.63;1.30;;;26.30;99.90;;;;;;4823457;29;20046;-72
2022/08/04 09:26:48;;;;;;;2.60;1.20;;;26.40;99.90;;;;;;4824876;29;20058;-72
2022/08/04 09:29:26;;;;;;;3.00;1.50;;;26.60;99.90;;;;;;4823563;29;20060;-72
2022/08/04 09:31:56;;;;;;;2.67;1.35;;;26.50;99.90;;;;;;4823278;29;20050;-72
2022/08/04 09:34:38;;;;;;;2.50;1.25;;;26.70;99.90;;;;;;4823222;29;20608;-72
2022/08/04 09:37:13;;;;;;;2.25;1.27;;;26.70;99.90;;;;;;4823532;29;20443;-72
2022/08/04 09:39:52;;;;;;;3.25;1.45;;;26.90;99.90;;;;;;4823185;29;20134;-72
2022/08/04 09:42:40;;;;;;;1.75;1.17;;;27.10;99.90;;;;;;4823132;29;20507;-72
2022/08/04 09:45:26;;;;;;;1.48;1.10;;;27.10;99.90;;;;;;4822945;29;20062;-72
2022/08/04 09:48:00;;;;;;;1.63;0.90;;;27.40;99.90;;;;;;4823153;29;20097;-72
2022/08/04 09:50:51;;;;;;;1.50;1.15;;;27.40;99.90;;;;;;4823029;29;20091;-72
2022/08/04 09:53:26;;;;;;;3.17;1.15;;;27.20;99.90;;;;;;4824336;29;20408;-72
2022/08/04 09:56:17;;;;;;;2.30;1.17;;;27.20;99.90;;;;;;4811034;29;20164;-72
2022/08/04 09:59:05;;;;;;;1.92;1.13;;;27.00;99.90;;;;;;4813139;29;20511;-72
2022/08/04 10:01:33;;;;;;;2.40;1.10;;;26.70;99.90;;;;;;4824403;29;20142;-72
2022/08/04 10:04:01;;;;;;;1.48;0.82;;;26.50;99.90;;;;;;4822806;29;20084;-72
2022/08/04 10:06:33;;;;;;;0.90;0.75;;;26.80;99.90;;;;;;4807948;29;20049;-72
2022/08/04 10:09:14;;;;;;;2.03;0.80;;;26.90;99.90;;;;;;4822735;29;20066;-72
2022/08/04 10:11:58;;;;;;;3.45;1.10;;;27.00;99.50;;;;;;4811062;29;20058;-72
2022/08/04 10:14:38;;;;;;;1.90;0.80;;;27.00;99.10;;;;;;4822767;29;20129;-72
2022/08/04 10:17:09;;;;;;;2.35;1.00;;;27.30;99.00;;;;;;4822888;29;20474;-72
2022/08/04 10:19:37;;;;;;;2.80;0.75;;;27.40;98.50;;;;;;4822813;29;20073;-72
2022/08/04 10:22:30;;;;;;;3.47;0.93;;;27.20;97.90;;;;;;4822432;29;20069;-72
2022/08/04 10:25:02;;;;;;;1.40;0.63;;;27.30;98.60;;;;;;4822609;29;20328;-72
2022/08/04 10:27:44;;;;;;;1.83;0.70;;;27.40;97.90;;;;;;4822781;29;20081;-72
2022/08/04 10:30:12;;;;;;;2.95;0.70;;;27.30;98.00;;;;;;4823647;29;20090;-72
2022/08/04 10:33:15;;;;;;;1.05;0.60;;;27.10;98.10;;;;;;4822932;29;20081;-72
2022/08/04 10:35:49;;;;;;;1.67;0.80;;;27.20;98.80;;;;;;4812272;29;20103;-72
2022/08/04 10:38:19;;;;;;;1.13;0.60;;;27.40;99.20;;;;;;4823756;29;20082;-72
2022/08/04 10:41:00;;;;;;;2.33;0.95;;;27.50;99.10;;;;;;4822321;29;20069;-72
2022/08/04 10:43:40;;;;;;;1.30;0.85;;;27.30;98.90;;;;;;4822189;29;20050;-72
2022/08/04 10:46:17;;;;;;;2.17;0.70;;;27.30;99.30;;;;;;4822562;29;20407;-72
2022/08/04 10:49:03;;;;;;;1.60;0.70;;;27.20;99.40;;;;;;4822633;29;20370;-72
2022/08/04 10:51:33;;;;;;;;;;;27.20;99.80;;;;;;4822880;29;20402;-72
2022/08/04 10:54:05;;;;;;;1.80;0.70;;;27.40;99.90;;;;;;4822258;29;19924;-72
2022/08/04 10:56:37;;;;;;;1.88;0.70;;;27.40;99.90;;;;;;4821814;29;20406;-72
2022/08/04 10:59:10;;;;;;;1.38;0.85;;;27.40;99.90;;;;;;4822139;29;20047;-72
2022/08/04 11:01:43;;;;;;;1.98;0.75;;;27.20;99.90;;;;;;4822226;29;20081;-72
2022/08/04 11:04:24;;;;;;;1.05;0.57;;;27.50;99.90;;;;;;4818152;29;20054;-72
2022/08/04 11:06:51;;;;;;;1.42;0.60;;;27.50;99.90;;;;;;4821897;29;20042;-72
2022/08/04 11:09:17;;;;;;;1.70;0.90;;;27.30;99.90;;;;;;4821602;29;20641;-72
2022/08/04 11:11:53;;;;;;;2.03;0.80;;;27.30;99.90;;;;;;4806710;29;20137;-72
2022/08/04 11:14:29;;;;;;;1.73;0.60;;;27.30;99.90;;;;;;4821738;29;20414;-72
2022/08/04 11:17:02;;;;;;;0.80;0.57;;;27.30;99.90;;;;;;4821964;29;20114;-72
2022/08/04 11:19:47;;;;;;;0.90;0.60;;;27.10;99.90;;;;;;4822966;29;20050;-72
2022/08/04 11:22:21;;;;;;;0.98;0.60;;;27.10;99.90;;;;;;4822030;29;20058;-72
2022/08/04 11:25:16;;;;;;;0.82;0.50;;;27.10;99.90;;;;;;4821738;29;20472;-72
2022/08/04 11:27:51;;;;;;;1.42;0.77;;;27.00;99.90;;;;;;4821849;29;20066;-72
2022/08/04 11:30:17;;;;;;;2.25;0.47;;;26.90;99.70;;;;;;4821698;29;20065;-72
2022/08/04 11:32:58;;;;;;;0.60;0.43;;;26.90;99.90;;;;;;4821078;29;20069;-72
2022/08/04 11:35:28;;;;;;;1.27;0.45;;;26.90;99.90;;;;;;4821667;29;20085;-72
2022/08/04 11:38:17;;;;;;;1.23;0.52;;;27.00;99.90;;;;;;4806554;29;20058;-72
2022/08/04 11:40:46;;;;;;;0.90;0.50;;;26.90;99.90;;;;;;4806758;29;20067;-72
2022/08/04 11:43:18;;;;;;;1.90;0.60;;;26.90;99.90;;;;;;4816503;29;20129;-72
2022/08/04 11:45:53;;;;;;;1.40;0.60;;;26.70;99.90;;;;;;4823164;29;20055;-72
2022/08/04 11:48:28;;;;;;;0.70;0.40;;;26.70;99.90;;;;;;4821473;29;20078;-72
2022/08/04 11:50:55;;;;;;;0.68;0.45;;;26.90;99.90;;;;;;4821623;29;20376;-73
2022/08/04 11:53:24;;;;;;;1.20;0.60;;;26.90;99.20;;;;;;4822732;29;20184;-72
2022/08/04 11:55:53;;;;;;;1.65;0.50;;;27.10;99.20;;;;;;4822742;29;20086;-72
2022/08/04 11:58:22;;;;;;;1.17;0.60;;;27.10;99.10;;;;;;4821191;29;20159;-72
2022/08/04 12:01:24;;;;;;;0.90;0.50;;;26.90;99.00;;;;;;4821168;29;20061;-72
2022/08/04 12:04:09;;;;;;;2.47;0.60;;;26.70;98.70;;;;;;4800479;29;20054;-72
2022/08/04 12:06:48;;;;;;;1.00;0.60;;;26.50;98.70;;;;;;4809817;29;20064;-72
2022/08/04 12:09:41;;;;;;;1.38;0.70;;;26.50;99.10;;;;;;4821056;29;20058;-72
2022/08/04 12:12:09;;;;;;;0.55;0.50;;;26.40;98.90;;;;;;4821085;29;20065;-72
2022/08/04 12:15:05;;;;;;;1.55;0.55;;;26.40;98.70;;;;;;4820881;29;20057;-72
2022/08/04 12:17:44;;;;;;;1.70;0.63;;;26.20;98.60;;;;;;4822468;29;20050;-72
2022/08/04 12:20:15;;;;;;;1.60;0.50;;;26.00;99.10;;;;;;4810421;29;20050;-72
2022/08/04 12:22:46;;;;;;;0.98;0.40;;;25.80;98.80;;;;;;4815427;29;20478;-73
2022/08/04 12:25:24;;;;;;;1.02;0.50;;;25.90;99.10;;;;;;4808893;29;20122;-72
2022/08/04 12:28:14;;;;;;;0.57;0.50;;;25.70;98.70;;;;;;4820764;29;20069;-72
2022/08/04 12:30:48;;;;;;;1.17;0.60;;;25.60;98.50;;;;;;4821184;29;20062;-72
2022/08/04 12:33:22;;;;;;;1.13;0.57;;;25.30;98.80;;;;;;4818693;29;20499;-72
2022/08/04 12:36:06;;;;;;;0.50;0.43;;;25.30;99.00;;;;;;4817566;29;20050;-72
2022/08/04 12:38:33;;;;;;;0.82;0.52;;;25.30;99.30;;;;;;4820949;29;20347;-72
2022/08/04 12:41:03;;;;;;;0.77;0.50;;;25.30;98.70;;;;;;4818108;29;20099;-72
2022/08/04 12:43:40;;;;;;;1.52;0.45;;;25.30;99.10;;;;;;4818113;29;20069;-72
2022/08/04 12:46:21;;;;;;;0.90;0.50;;;25.30;98.80;;;;;;4817978;29;20057;-72
2022/08/04 12:48:48;;;;;;;1.30;0.50;;;25.30;98.70;;;;;;4803766;29;20061;-72
2022/08/04 12:51:14;;;;;;;0.57;0.50;;;25.40;98.80;;;;;;4825501;29;20422;-72
2022/08/04 12:53:42;;;;;;;0.93;0.50;;;25.60;98.60;;;;;;4823770;29;20058;-73
2022/08/04 12:56:10;;;;;;;0.88;0.50;;;25.90;98.60;;;;;;4808544;29;20066;-73
2022/08/04 12:58:48;;;;;;;0.60;0.40;;;26.10;97.40;;;;;;4824328;29;20435;-73
2022/08/04 13:01:17;;;;;;;0.82;0.60;;;25.90;97.00;;;;;;4823961;29;20061;-73
2022/08/04 13:03:57;;;;;;;0.57;0.40;;;25.90;97.80;;;;;;4825090;29;20054;-73
2022/08/04 13:06:31;;;;;;;0.63;0.40;;;25.80;97.50;;;;;;4825139;29;20046;-73
2022/08/04 13:09:08;;;;;;;0.60;0.32;;;25.90;97.80;;;;;;4825113;29;20099;-73
2022/08/04 13:11:40;;;;;;;0.93;0.50;;;26.00;97.50;;;;;;4821853;29;20049;-73
2022/08/04 13:14:07;;;;;;;1.27;0.50;;;25.90;96.90;;;;;;4824854;29;20060;-73
2022/08/04 13:16:33;;;;;;;0.52;0.40;;;25.90;97.40;;;;;;4824876;29;20494;-73
2022/08/04 13:18:59;;;;;;;1.00;0.40;;;26.00;97.10;;;;;;4824814;29;20042;-73
2022/08/04 13:21:28;;;;;;;1.05;0.30;;;26.00;97.30;;;;;;4823574;29;20054;-73
2022/08/04 13:24:02;;;;;;;0.88;0.50;;;26.10;97.30;;;;;;4823640;29;20066;-73
2022/08/04 13:26:28;;;;;;;1.65;0.70;;;26.20;97.30;;;;;;4823361;29;20069;-73
2022/08/04 13:28:59;;;;;;;0.52;0.43;;;26.40;97.90;;;;;;4823284;29;20051;-73
2022/08/04 13:31:27;;;;;;;0.63;0.30;;;26.40;97.40;;;;;;4823606;29;20064;-73
2022/08/04 13:34:00;;;;;;;0.82;0.50;;;26.40;97.30;;;;;;4823322;29;20536;-73
2022/08/04 13:36:28;;;;;;;0.80;0.40;;;26.50;97.90;;;;;;4824608;29;20081;-73
2022/08/04 13:38:58;;;;;;;1.42;0.50;;;26.60;97.60;;;;;;4824584;29;20051;-73